createdAt,value
2018-01-11T00:00:19.155Z,10.60
2018-01-11T00:02:46.083Z,12.23
2018-01-11T00:05:12.944Z,12.40
2018-01-11T00:07:39.963Z,10.30
2018-01-11T00:10:06.845Z,10.23
2018-01-11T00:12:34.327Z,11.43
2018-01-11T00:15:01.245Z,17.63
2018-01-11T00:17:29.554Z,11.40
2018-01-11T00:19:57.214Z,10.68
2018-01-11T00:22:24.032Z,10.50
2018-01-11T00:24:51.035Z,11.43
2018-01-11T00:27:17.963Z,11.23
2018-01-11T00:29:45.577Z,13.53
2018-01-11T00:32:12.776Z,12.30
2018-01-11T00:34:39.818Z,11.45
2018-01-11T00:37:07.388Z,14.10
2018-01-11T00:39:34.618Z,10.97
2018-01-11T00:42:01.796Z,12.20
2018-01-11T00:44:28.925Z,12.45
2018-01-11T00:46:56.143Z,13.63
2018-01-11T00:49:23.628Z,11.73
2018-01-11T00:51:51.465Z,12.37
2018-01-11T00:54:18.490Z,11.17
2018-01-11T00:56:48.015Z,13.38
2018-01-11T00:59:15.132Z,11.48
2018-01-11T01:01:44.276Z,11.27
2018-01-11T01:04:11.342Z,13.68
2018-01-11T01:06:38.401Z,12.45
2018-01-11T01:09:06.886Z,13.90
2018-01-11T01:11:35.280Z,12.43
2018-01-11T01:14:05.765Z,11.88
2018-01-11T01:16:34.140Z,13.40
2018-01-11T01:19:01.270Z,14.52
2018-01-11T01:21:30.146Z,12.48
2018-01-11T01:23:57.430Z,12.32
2018-01-11T01:26:25.261Z,14.07
2018-01-11T01:28:52.998Z,14.57
2018-01-11T01:31:20.026Z,16.70
2018-01-11T01:33:46.925Z,15.90
2018-01-11T01:36:14.297Z,12.80
2018-01-11T01:38:43.197Z,14.47
2018-01-11T01:41:10.129Z,13.82
2018-01-11T01:43:36.982Z,14.63
2018-01-11T01:46:04.369Z,17.40
2018-01-11T01:48:43.269Z,14.45
2018-01-11T01:51:11.242Z,14.32
2018-01-11T01:53:38.337Z,12.57
2018-01-11T01:56:06.350Z,12.32
2018-01-11T01:58:33.294Z,16.30
2018-01-11T02:01:00.194Z,13.15
2018-01-11T02:03:27.857Z,13.05
2018-01-11T02:05:55.015Z,14.20
2018-01-11T02:08:21.915Z,12.35
2018-01-11T02:10:49.531Z,14.43
2018-01-11T02:13:16.899Z,14.15
2018-01-11T02:15:52.898Z,15.40
2018-01-11T02:18:23.494Z,15.25
2018-01-11T02:20:53.782Z,13.40
2018-01-11T02:23:24.700Z,13.00
2018-01-11T02:25:57.721Z,19.15
2018-01-11T02:31:11.344Z,14.65
2018-01-11T02:33:43.525Z,13.18
2018-01-11T02:36:11.846Z,14.70
2018-01-11T02:38:47.196Z,13.20
2018-01-11T02:46:53.970Z,18.67
2018-01-11T02:49:46.002Z,12.98
2018-01-11T02:52:16.447Z,16.85
2018-01-11T02:57:20.643Z,16.12
2018-01-11T03:17:56.435Z,12.75
2018-01-11T03:20:24.452Z,15.32
2018-01-11T03:22:57.304Z,12.80
2018-01-11T03:25:25.685Z,15.50
2018-01-11T03:27:54.345Z,14.18
2018-01-11T03:30:23.448Z,13.20
2018-01-11T03:32:51.681Z,17.23
2018-01-11T03:35:19.812Z,16.90
2018-01-11T03:37:48.997Z,14.50
2018-01-11T03:40:16.704Z,16.90
2018-01-11T03:42:44.697Z,17.10
2018-01-11T03:45:12.276Z,13.32
2018-01-11T03:47:39.927Z,13.85
2018-01-11T03:50:07.485Z,20.23
2018-01-11T03:52:35.008Z,17.17
2018-01-11T03:55:02.568Z,14.73
2018-01-11T03:57:31.054Z,16.27
2018-01-11T03:59:58.461Z,15.60
2018-01-11T04:02:43.306Z,15.82
2018-01-11T04:05:10.769Z,17.50
2018-01-11T04:07:39.486Z,17.37
2018-01-11T04:10:07.394Z,13.45
2018-01-11T04:12:34.911Z,14.95
2018-01-11T04:15:02.157Z,20.85
2018-01-11T04:17:29.598Z,15.13
2018-01-11T04:19:57.097Z,16.12
2018-01-11T04:22:25.430Z,15.25
2018-01-11T04:24:52.943Z,15.55
2018-01-11T04:27:22.315Z,16.25
2018-01-11T04:29:49.801Z,16.40
2018-01-11T04:32:17.267Z,16.15
2018-01-11T04:34:46.271Z,14.40
2018-01-11T04:37:13.805Z,17.12
2018-01-11T04:39:44.035Z,17.70
2018-01-11T04:42:13.353Z,19.20
2018-01-11T04:44:41.573Z,14.32
2018-01-11T04:47:14.081Z,16.62
2018-01-11T04:49:42.963Z,18.27
2018-01-11T04:52:10.434Z,15.00
2018-01-11T04:54:44.126Z,17.20
2018-01-11T05:15:11.313Z,17.15
2018-01-11T05:17:42.699Z,18.48
2018-01-11T05:20:13.268Z,19.62
2018-01-11T05:23:03.780Z,15.50
2018-01-11T05:25:38.410Z,16.80
2018-01-11T05:28:08.992Z,19.80
2018-01-11T06:30:32.662Z,20.00
2018-01-11T07:07:24.782Z,19.98
2018-01-11T07:09:55.081Z,22.62
2018-01-11T07:12:26.131Z,21.50
2018-01-11T07:17:33.889Z,18.05
2018-01-11T07:22:40.445Z,23.65
2018-01-11T07:25:09.774Z,25.77
2018-01-11T07:27:43.552Z,26.25
2018-01-11T07:30:11.239Z,24.60
2018-01-11T07:32:41.009Z,28.58
2018-01-11T07:35:17.037Z,26.95
2018-01-11T07:37:44.687Z,26.65
2018-01-11T07:42:50.009Z,26.25
2018-01-11T07:45:23.207Z,26.85
2018-01-11T07:47:54.451Z,22.17
2018-01-11T07:50:26.977Z,26.17
2018-01-11T07:52:54.365Z,25.83
2018-01-11T07:55:21.639Z,23.17
2018-01-11T07:57:49.695Z,27.55
2018-01-11T08:00:17.628Z,25.30
2018-01-11T08:02:45.384Z,24.73
2018-01-11T08:05:12.608Z,23.33
2018-01-11T08:07:39.891Z,22.33
2018-01-11T08:10:07.323Z,25.42
2018-01-11T08:12:36.188Z,27.52
2018-01-11T08:15:04.120Z,28.70
2018-01-11T08:17:31.420Z,28.58
2018-01-11T08:19:59.319Z,33.60
2018-01-11T08:22:26.599Z,27.20
2018-01-11T08:24:54.090Z,28.67
2018-01-11T08:27:21.431Z,24.25
2018-01-11T08:29:49.039Z,24.65
2018-01-11T08:32:16.487Z,25.65
2018-01-11T08:34:43.887Z,24.95
2018-01-11T08:37:11.266Z,30.30
2018-01-11T08:39:38.561Z,24.05
2018-01-11T08:42:06.022Z,25.60
2018-01-11T08:44:33.461Z,26.70
2018-01-11T08:47:00.806Z,24.47
2018-01-11T08:49:28.016Z,24.17
2018-01-11T08:51:55.177Z,21.87
2018-01-11T08:54:22.461Z,28.33
2018-01-11T08:56:49.589Z,27.13
2018-01-11T08:59:19.186Z,29.83
2018-01-11T09:01:47.044Z,32.03
2018-01-11T09:04:14.437Z,31.48
2018-01-11T09:06:42.543Z,34.72
2018-01-11T09:09:09.783Z,33.08
2018-01-11T09:11:37.032Z,32.33
2018-01-11T09:14:04.605Z,33.13
2018-01-11T09:16:31.806Z,29.93
2018-01-11T09:18:58.854Z,26.90
2018-01-11T09:21:26.145Z,29.58
2018-01-11T09:23:53.606Z,33.27
2018-01-11T09:26:20.848Z,30.37
2018-01-11T09:28:49.047Z,35.30
2018-01-11T09:31:16.417Z,33.77
2018-01-11T09:33:43.609Z,32.33
2018-01-11T09:36:10.875Z,32.20
2018-01-11T09:38:38.242Z,31.60
2018-01-11T09:41:06.527Z,30.13
2018-01-11T09:43:34.923Z,30.20
2018-01-11T09:46:02.011Z,28.20
2018-01-11T09:48:29.308Z,25.47
2018-01-11T09:50:57.320Z,29.47
2018-01-11T09:53:24.530Z,32.30
2018-01-11T09:55:51.626Z,30.23
2018-01-11T09:58:19.743Z,30.03
2018-01-11T10:00:47.019Z,29.00
2018-01-11T10:03:13.948Z,28.10
2018-01-11T10:05:40.904Z,28.87
2018-01-11T10:08:07.980Z,32.60
2018-01-11T10:10:35.017Z,27.80
2018-01-11T10:13:02.130Z,27.60
2018-01-11T10:15:29.972Z,31.30
2018-01-11T10:18:00.567Z,29.17
2018-01-11T10:20:28.054Z,29.97
2018-01-11T10:25:35.570Z,29.47
2018-01-11T10:28:02.941Z,32.70
2018-01-11T10:30:30.360Z,28.40
2018-01-11T10:32:58.742Z,30.83
2018-01-11T10:35:26.386Z,29.00
2018-01-11T10:37:54.656Z,28.40
2018-01-11T10:40:23.026Z,31.33
2018-01-11T10:42:50.986Z,26.80
2018-01-11T10:45:23.526Z,28.77
2018-01-11T10:47:53.998Z,27.30
2018-01-11T10:50:23.457Z,30.63
2018-01-11T11:10:52.158Z,26.03
2018-01-11T11:55:48.639Z,29.23
2018-01-11T12:46:09.220Z,25.70
2018-01-11T13:04:20.244Z,21.70
2018-01-11T13:07:18.146Z,25.13
2018-01-11T13:09:50.083Z,21.20
2018-01-11T13:12:17.042Z,25.17
2018-01-11T13:14:44.019Z,22.00
2018-01-11T13:17:12.354Z,23.07
2018-01-11T13:19:39.884Z,21.30
2018-01-11T13:24:39.595Z,24.33
2018-01-11T13:29:43.295Z,25.03
2018-01-11T13:32:10.882Z,27.27
2018-01-11T13:34:38.121Z,20.90
2018-01-11T13:37:15.922Z,22.30
2018-01-11T13:42:38.933Z,25.47
2018-01-11T13:45:17.154Z,22.83
2018-01-11T13:47:50.434Z,22.47
2018-01-11T13:50:20.516Z,22.80
2018-01-11T13:52:51.268Z,24.50
2018-01-11T14:03:57.059Z,24.53
2018-01-11T14:06:26.301Z,25.73
2018-01-11T14:09:01.909Z,28.37
2018-01-11T14:11:42.559Z,22.47
2018-01-11T14:14:29.718Z,25.63
2018-01-11T14:25:19.242Z,24.70
2018-01-11T14:27:55.933Z,25.53
2018-01-11T14:52:21.864Z,23.30
2018-01-11T15:49:36.209Z,28.30
2018-01-11T15:52:29.131Z,25.90
2018-01-11T15:55:07.491Z,28.40
2018-01-11T17:15:37.564Z,28.30
2018-01-11T18:32:58.818Z,56.27
2018-01-11T18:35:27.141Z,63.07
2018-01-11T18:37:56.544Z,54.43
2018-01-11T18:40:24.538Z,54.83
2018-01-11T19:24:33.069Z,83.10
2018-01-11T19:27:01.143Z,82.20
2018-01-11T20:09:19.937Z,106.82
2018-01-11T20:11:49.867Z,114.12
2018-01-11T20:14:20.034Z,79.12
2018-01-11T20:16:55.684Z,103.70
2018-01-11T20:22:00.523Z,92.72
2018-01-11T20:24:30.322Z,71.97
2018-01-11T20:29:38.942Z,73.67
2018-01-11T20:32:07.640Z,77.17
2018-01-11T20:55:27.686Z,74.37
2018-01-11T21:40:28.546Z,83.53
2018-01-11T21:42:55.407Z,71.63
2018-01-11T21:45:22.357Z,69.35
2018-01-11T21:47:50.158Z,68.67
2018-01-11T21:50:17.079Z,65.80
2018-01-11T21:52:43.929Z,77.93
2018-01-11T21:55:10.888Z,76.18
2018-01-11T21:57:39.123Z,80.72
2018-01-11T22:00:06.039Z,81.15
2018-01-11T22:02:32.829Z,87.80
2018-01-11T22:05:00.431Z,79.93
2018-01-11T22:07:27.293Z,85.25
2018-01-11T22:09:54.690Z,67.95
2018-01-11T22:12:21.560Z,76.37
2018-01-11T22:14:48.392Z,64.12
2018-01-11T22:17:15.296Z,67.18
2018-01-11T22:19:42.245Z,77.25
2018-01-11T22:22:09.100Z,84.67
2018-01-11T22:24:36.043Z,78.65
2018-01-11T22:27:02.950Z,70.37
2018-01-11T22:29:29.779Z,74.90
2018-01-11T22:31:56.672Z,87.10
2018-01-11T22:34:23.510Z,80.82
2018-01-11T22:36:50.337Z,70.20
2018-01-11T22:39:17.894Z,80.87
2018-01-11T22:41:44.706Z,69.15
2018-01-11T22:44:11.561Z,62.42
2018-01-11T22:46:38.435Z,70.05
2018-01-11T22:49:05.253Z,79.20
2018-01-11T22:51:32.836Z,65.32
2018-01-11T22:54:00.400Z,82.32
2018-01-11T22:56:27.208Z,70.43
2018-01-11T22:58:54.033Z,71.82
2018-01-11T23:01:21.647Z,72.45
2018-01-11T23:03:48.438Z,76.28
2018-01-11T23:06:15.328Z,74.47
2018-01-11T23:08:42.889Z,66.80
2018-01-11T23:11:09.715Z,78.03
2018-01-11T23:13:36.548Z,78.07
2018-01-11T23:16:03.402Z,65.15
2018-01-11T23:18:30.222Z,67.50
2018-01-11T23:20:56.995Z,72.07
2018-01-11T23:23:23.849Z,65.75
2018-01-11T23:25:51.041Z,74.05
2018-01-11T23:28:17.868Z,67.03
2018-01-11T23:30:44.675Z,80.47
2018-01-11T23:33:12.146Z,72.03
2018-01-11T23:35:38.971Z,74.18
2018-01-11T23:38:05.798Z,76.20
2018-01-11T23:40:32.639Z,72.75
2018-01-11T23:42:59.477Z,75.03
2018-01-11T23:45:27.011Z,72.40
2018-01-11T23:47:53.891Z,78.50
2018-01-11T23:50:20.761Z,76.00
2018-01-11T23:52:47.620Z,68.12
2018-01-11T23:55:14.400Z,78.43
2018-01-11T23:57:42.014Z,77.97
